sensor_id;sensor_type;location;lat;lon;timestamp;temperature;humidity
8269;DHT22;4174;48.304;16.364;2023-04-25T00:01:02;11.30;99.90
8269;DHT22;4174;48.304;16.364;2023-04-25T00:07:03;11.30;99.90
8269;DHT22;4174;48.304;16.364;2023-04-25T00:13:07;11.30;99.90
8269;DHT22;4174;48.304;16.364;2023-04-25T00:19:10;11.20;99.90
8269;DHT22;4174;48.304;16.364;2023-04-25T00:25:13;11.30;99.90
8269;DHT22;4174;48.304;16.364;2023-04-25T00:31:16;11.40;99.90
8269;DHT22;4174;48.304;16.364;2023-04-25T00:37:20;11.30;99.90
8269;DHT22;4174;48.304;16.364;2023-04-25T00:43:25;11.20;99.90
8269;DHT22;4174;48.304;16.364;2023-04-25T00:49:28;11.20;99.90
8269;DHT22;4174;48.304;16.364;2023-04-25T00:55:31;11.20;99.90
8269;DHT22;4174;48.304;16.364;2023-04-25T01:01:34;11.30;99.90
8269;DHT22;4174;48.304;16.364;2023-04-25T01:07:37;11.20;99.90
8269;DHT22;4174;48.304;16.364;2023-04-25T01:13:39;11.20;99.90
8269;DHT22;4174;48.304;16.364;2023-04-25T01:19:43;11.20;99.90
8269;DHT22;4174;48.304;16.364;2023-04-25T01:25:45;11.10;99.90
8269;DHT22;4174;48.304;16.364;2023-04-25T01:31:50;11.00;99.90
8269;DHT22;4174;48.304;16.364;2023-04-25T01:37:53;11.00;99.90
8269;DHT22;4174;48.304;16.364;2023-04-25T01:43:55;11.10;99.90
8269;DHT22;4174;48.304;16.364;2023-04-25T01:49:58;11.10;99.90
8269;DHT22;4174;48.304;16.364;2023-04-25T01:56:02;11.20;99.90
8269;DHT22;4174;48.304;16.364;2023-04-25T02:02:06;11.10;99.90
8269;DHT22;4174;48.304;16.364;2023-04-25T02:08:09;11.20;99.90
8269;DHT22;4174;48.304;16.364;2023-04-25T02:14:12;11.10;99.90
8269;DHT22;4174;48.304;16.364;2023-04-25T02:20:16;11.20;99.90
8269;DHT22;4174;48.304;16.364;2023-04-25T02:26:19;11.00;99.90
8269;DHT22;4174;48.304;16.364;2023-04-25T02:32:23;10.90;99.90
8269;DHT22;4174;48.304;16.364;2023-04-25T02:38:26;11.00;99.90
8269;DHT22;4174;48.304;16.364;2023-04-25T02:44:30;11.10;99.90
8269;DHT22;4174;48.304;16.364;2023-04-25T02:50:33;10.80;99.90
8269;DHT22;4174;48.304;16.364;2023-04-25T02:56:37;10.90;99.90
8269;DHT22;4174;48.304;16.364;2023-04-25T03:02:41;10.50;99.90
8269;DHT22;4174;48.304;16.364;2023-04-25T03:08:45;10.50;99.90
8269;DHT22;4174;48.304;16.364;2023-04-25T03:14:49;10.60;99.90
8269;DHT22;4174;48.304;16.364;2023-04-25T03:20:53;10.60;99.90
8269;DHT22;4174;48.304;16.364;2023-04-25T03:26:57;10.70;99.90
8269;DHT22;4174;48.304;16.364;2023-04-25T03:33:00;10.50;99.90
8269;DHT22;4174;48.304;16.364;2023-04-25T03:39:04;10.40;99.90
8269;DHT22;4174;48.304;16.364;2023-04-25T03:45:09;10.30;99.90
8269;DHT22;4174;48.304;16.364;2023-04-25T03:51:14;10.20;99.90
8269;DHT22;4174;48.304;16.364;2023-04-25T03:57:18;10.30;99.90
8269;DHT22;4174;48.304;16.364;2023-04-25T04:03:22;10.30;99.90
8269;DHT22;4174;48.304;16.364;2023-04-25T04:09:26;10.40;99.90
8269;DHT22;4174;48.304;16.364;2023-04-25T04:15:30;10.50;99.90
8269;DHT22;4174;48.304;16.364;2023-04-25T04:21:34;10.70;99.90
8269;DHT22;4174;48.304;16.364;2023-04-25T04:27:37;10.50;99.90
8269;DHT22;4174;48.304;16.364;2023-04-25T04:33:40;10.50;99.90
8269;DHT22;4174;48.304;16.364;2023-04-25T04:39:44;10.60;99.90
8269;DHT22;4174;48.304;16.364;2023-04-25T04:45:48;10.60;99.90
8269;DHT22;4174;48.304;16.364;2023-04-25T04:51:50;10.40;99.90
8269;DHT22;4174;48.304;16.364;2023-04-25T04:57:53;10.50;99.90
8269;DHT22;4174;48.304;16.364;2023-04-25T05:03:56;10.20;99.90
8269;DHT22;4174;48.304;16.364;2023-04-25T05:10:02;10.20;99.90
8269;DHT22;4174;48.304;16.364;2023-04-25T05:16:07;10.20;99.90
8269;DHT22;4174;48.304;16.364;2023-04-25T05:22:11;10.30;99.90
8269;DHT22;4174;48.304;16.364;2023-04-25T05:28:14;10.20;99.90
8269;DHT22;4174;48.304;16.364;2023-04-25T05:34:18;10.30;99.90
8269;DHT22;4174;48.304;16.364;2023-04-25T05:40:21;10.50;99.90
8269;DHT22;4174;48.304;16.364;2023-04-25T05:46:25;10.60;99.90
8269;DHT22;4174;48.304;16.364;2023-04-25T05:52:29;11.30;99.90
8269;DHT22;4174;48.304;16.364;2023-04-25T05:58:32;12.10;99.90
8269;DHT22;4174;48.304;16.364;2023-04-25T06:04:36;13.10;99.90
8269;DHT22;4174;48.304;16.364;2023-04-25T06:10:40;13.90;99.90
8269;DHT22;4174;48.304;16.364;2023-04-25T06:16:44;15.20;99.90
8269;DHT22;4174;48.304;16.364;2023-04-25T06:22:47;16.60;99.90
8269;DHT22;4174;48.304;16.364;2023-04-25T06:28:51;17.60;99.90
8269;DHT22;4174;48.304;16.364;2023-04-25T06:34:54;18.00;96.80
8269;DHT22;4174;48.304;16.364;2023-04-25T06:40:59;18.50;92.40
8269;DHT22;4174;48.304;16.364;2023-04-25T06:47:02;18.50;92.50
8269;DHT22;4174;48.304;16.364;2023-04-25T06:53:06;19.20;93.00
8269;DHT22;4174;48.304;16.364;2023-04-25T06:59:10;19.60;90.40
8269;DHT22;4174;48.304;16.364;2023-04-25T07:05:17;20.20;82.90
8269;DHT22;4174;48.304;16.364;2023-04-25T07:11:21;20.20;82.50
8269;DHT22;4174;48.304;16.364;2023-04-25T07:17:25;20.20;82.50
8269;DHT22;4174;48.304;16.364;2023-04-25T07:23:29;20.00;82.20
8269;DHT22;4174;48.304;16.364;2023-04-25T07:29:32;20.50;78.80
8269;DHT22;4174;48.304;16.364;2023-04-25T07:35:36;20.20;80.00
8269;DHT22;4174;48.304;16.364;2023-04-25T07:41:40;20.30;80.50
8269;DHT22;4174;48.304;16.364;2023-04-25T07:47:44;20.80;75.60
8269;DHT22;4174;48.304;16.364;2023-04-25T07:53:48;20.40;78.60
8269;DHT22;4174;48.304;16.364;2023-04-25T07:59:52;20.40;78.70
8269;DHT22;4174;48.304;16.364;2023-04-25T08:05:56;20.80;76.00
8269;DHT22;4174;48.304;16.364;2023-04-25T08:11:59;21.10;76.70
8269;DHT22;4174;48.304;16.364;2023-04-25T08:18:03;21.30;71.60
8269;DHT22;4174;48.304;16.364;2023-04-25T08:24:06;21.70;75.80
8269;DHT22;4174;48.304;16.364;2023-04-25T08:30:11;21.40;68.10
8269;DHT22;4174;48.304;16.364;2023-04-25T08:36:16;21.20;75.80
8269;DHT22;4174;48.304;16.364;2023-04-25T08:42:20;22.00;70.30
8269;DHT22;4174;48.304;16.364;2023-04-25T08:48:23;22.60;65.80
8269;DHT22;4174;48.304;16.364;2023-04-25T08:54:27;22.60;65.60
8269;DHT22;4174;48.304;16.364;2023-04-25T09:00:30;21.90;66.50
8269;DHT22;4174;48.304;16.364;2023-04-25T09:06:33;22.40;68.50
8269;DHT22;4174;48.304;16.364;2023-04-25T09:12:37;22.60;63.80
8269;DHT22;4174;48.304;16.364;2023-04-25T09:18:41;22.90;63.30
8269;DHT22;4174;48.304;16.364;2023-04-25T09:24:45;22.90;63.30
8269;DHT22;4174;48.304;16.364;2023-04-25T09:30:48;22.60;67.50
8269;DHT22;4174;48.304;16.364;2023-04-25T09:36:53;22.70;64.30
8269;DHT22;4174;48.304;16.364;2023-04-25T09:42:54;22.60;62.80
8269;DHT22;4174;48.304;16.364;2023-04-25T09:48:58;21.40;67.10
8269;DHT22;4174;48.304;16.364;2023-04-25T09:55:02;19.00;77.80
8269;DHT22;4174;48.304;16.364;2023-04-25T10:01:07;16.70;93.10
8269;DHT22;4174;48.304;16.364;2023-04-25T10:07:09;15.60;99.90
8269;DHT22;4174;48.304;16.364;2023-04-25T10:13:12;15.30;99.90
8269;DHT22;4174;48.304;16.364;2023-04-25T10:19:15;15.40;99.90
8269;DHT22;4174;48.304;16.364;2023-04-25T10:25:18;15.50;99.90
8269;DHT22;4174;48.304;16.364;2023-04-25T10:31:21;16.40;99.90
8269;DHT22;4174;48.304;16.364;2023-04-25T10:37:25;18.50;99.90
8269;DHT22;4174;48.304;16.364;2023-04-25T10:43:36;20.20;99.90
8269;DHT22;4174;48.304;16.364;2023-04-25T10:49:41;21.60;99.60
8269;DHT22;4174;48.304;16.364;2023-04-25T10:55:49;22.20;94.50
8269;DHT22;4174;48.304;16.364;2023-04-25T11:01:52;21.00;81.60
8269;DHT22;4174;48.304;16.364;2023-04-25T11:07:56;20.40;95.10
8269;DHT22;4174;48.304;16.364;2023-04-25T11:13:59;20.70;83.80
8269;DHT22;4174;48.304;16.364;2023-04-25T11:20:04;20.50;92.10
8269;DHT22;4174;48.304;16.364;2023-04-25T11:26:10;20.10;97.00
8269;DHT22;4174;48.304;16.364;2023-04-25T11:32:14;18.50;99.90
8269;DHT22;4174;48.304;16.364;2023-04-25T11:38:17;17.40;99.90
8269;DHT22;4174;48.304;16.364;2023-04-25T11:44:20;17.70;99.90
8269;DHT22;4174;48.304;16.364;2023-04-25T11:50:23;17.10;99.90
8269;DHT22;4174;48.304;16.364;2023-04-25T11:56:27;17.30;99.90
8269;DHT22;4174;48.304;16.364;2023-04-25T12:02:30;18.20;99.90
8269;DHT22;4174;48.304;16.364;2023-04-25T12:08:34;18.60;97.40
8269;DHT22;4174;48.304;16.364;2023-04-25T12:14:37;19.00;98.30
8269;DHT22;4174;48.304;16.364;2023-04-25T12:20:41;19.70;97.60
8269;DHT22;4174;48.304;16.364;2023-04-25T12:27:03;20.20;91.70
8269;DHT22;4174;48.304;16.364;2023-04-25T12:33:04;20.20;91.90
8269;DHT22;4174;48.304;16.364;2023-04-25T12:39:08;20.30;91.00
8269;DHT22;4174;48.304;16.364;2023-04-25T12:45:11;20.50;90.30
8269;DHT22;4174;48.304;16.364;2023-04-25T12:51:15;19.20;85.50
8269;DHT22;4174;48.304;16.364;2023-04-25T12:57:18;19.40;85.20
8269;DHT22;4174;48.304;16.364;2023-04-25T13:03:22;20.00;83.90
8269;DHT22;4174;48.304;16.364;2023-04-25T13:09:26;20.50;81.00
8269;DHT22;4174;48.304;16.364;2023-04-25T13:15:31;20.50;80.20
8269;DHT22;4174;48.304;16.364;2023-04-25T13:21:35;20.40;79.90
8269;DHT22;4174;48.304;16.364;2023-04-25T13:27:38;20.50;79.30
8269;DHT22;4174;48.304;16.364;2023-04-25T13:33:42;20.00;71.90
8269;DHT22;4174;48.304;16.364;2023-04-25T13:39:45;19.90;77.10
8269;DHT22;4174;48.304;16.364;2023-04-25T13:45:49;19.90;77.00
8269;DHT22;4174;48.304;16.364;2023-04-25T13:51:51;20.10;76.30
8269;DHT22;4174;48.304;16.364;2023-04-25T13:57:55;19.80;74.90
8269;DHT22;4174;48.304;16.364;2023-04-25T14:03:58;20.10;76.20
8269;DHT22;4174;48.304;16.364;2023-04-25T14:10:02;19.50;71.10
8269;DHT22;4174;48.304;16.364;2023-04-25T14:16:05;17.30;87.60
8269;DHT22;4174;48.304;16.364;2023-04-25T14:22:09;17.30;88.10
8269;DHT22;4174;48.304;16.364;2023-04-25T14:28:12;16.70;92.50
8269;DHT22;4174;48.304;16.364;2023-04-25T14:34:17;16.80;92.10
8269;DHT22;4174;48.304;16.364;2023-04-25T14:40:21;17.40;91.30
8269;DHT22;4174;48.304;16.364;2023-04-25T14:46:25;17.70;91.30
8269;DHT22;4174;48.304;16.364;2023-04-25T14:52:28;17.00;90.00
8269;DHT22;4174;48.304;16.364;2023-04-25T14:58:31;16.90;94.90
8269;DHT22;4174;48.304;16.364;2023-04-25T15:04:34;16.80;96.00
8269;DHT22;4174;48.304;16.364;2023-04-25T15:10:38;16.80;96.50
8269;DHT22;4174;48.304;16.364;2023-04-25T15:16:41;16.80;99.80
8269;DHT22;4174;48.304;16.364;2023-04-25T15:22:45;16.40;99.90
8269;DHT22;4174;48.304;16.364;2023-04-25T15:28:49;16.10;99.90
8269;DHT22;4174;48.304;16.364;2023-04-25T15:34:52;15.30;99.90
8269;DHT22;4174;48.304;16.364;2023-04-25T15:40:57;14.50;99.90
8269;DHT22;4174;48.304;16.364;2023-04-25T15:47:01;14.40;99.90
8269;DHT22;4174;48.304;16.364;2023-04-25T15:53:05;14.30;99.90
8269;DHT22;4174;48.304;16.364;2023-04-25T15:59:09;14.20;99.90
8269;DHT22;4174;48.304;16.364;2023-04-25T16:05:12;13.80;99.90
8269;DHT22;4174;48.304;16.364;2023-04-25T16:11:15;14.10;99.90
8269;DHT22;4174;48.304;16.364;2023-04-25T16:17:18;14.50;99.90
8269;DHT22;4174;48.304;16.364;2023-04-25T16:23:22;14.80;99.90
8269;DHT22;4174;48.304;16.364;2023-04-25T16:29:26;14.30;99.90
8269;DHT22;4174;48.304;16.364;2023-04-25T16:35:29;14.30;99.90
8269;DHT22;4174;48.304;16.364;2023-04-25T16:41:33;14.20;99.90
8269;DHT22;4174;48.304;16.364;2023-04-25T16:47:36;14.30;99.90
8269;DHT22;4174;48.304;16.364;2023-04-25T16:53:40;14.10;99.90
8269;DHT22;4174;48.304;16.364;2023-04-25T16:59:43;14.20;99.90
8269;DHT22;4174;48.304;16.364;2023-04-25T17:05:48;14.20;99.90
8269;DHT22;4174;48.304;16.364;2023-04-25T17:11:49;14.10;99.90
8269;DHT22;4174;48.304;16.364;2023-04-25T17:17:53;13.70;99.90
8269;DHT22;4174;48.304;16.364;2023-04-25T17:23:57;13.60;99.90
8269;DHT22;4174;48.304;16.364;2023-04-25T17:30:00;13.40;99.90
8269;DHT22;4174;48.304;16.364;2023-04-25T17:36:04;13.50;99.90
8269;DHT22;4174;48.304;16.364;2023-04-25T17:42:08;13.30;99.90
8269;DHT22;4174;48.304;16.364;2023-04-25T17:48:12;12.90;99.90
8269;DHT22;4174;48.304;16.364;2023-04-25T17:54:16;12.60;99.90
8269;DHT22;4174;48.304;16.364;2023-04-25T18:00:19;12.60;99.90
8269;DHT22;4174;48.304;16.364;2023-04-25T18:06:24;12.30;99.90
8269;DHT22;4174;48.304;16.364;2023-04-25T18:12:29;12.20;99.90
8269;DHT22;4174;48.304;16.364;2023-04-25T18:18:32;12.00;99.90
8269;DHT22;4174;48.304;16.364;2023-04-25T18:24:36;11.70;99.90
8269;DHT22;4174;48.304;16.364;2023-04-25T18:30:40;11.50;99.90
8269;DHT22;4174;48.304;16.364;2023-04-25T18:36:43;11.30;99.90
8269;DHT22;4174;48.304;16.364;2023-04-25T18:42:47;11.30;99.90
8269;DHT22;4174;48.304;16.364;2023-04-25T18:48:50;11.10;99.90
8269;DHT22;4174;48.304;16.364;2023-04-25T18:54:53;11.10;99.90
8269;DHT22;4174;48.304;16.364;2023-04-25T19:00:56;11.00;99.90
8269;DHT22;4174;48.304;16.364;2023-04-25T19:07:00;10.90;99.90
8269;DHT22;4174;48.304;16.364;2023-04-25T19:13:04;10.90;99.90
8269;DHT22;4174;48.304;16.364;2023-04-25T19:19:07;10.90;99.90
8269;DHT22;4174;48.304;16.364;2023-04-25T19:25:10;10.80;99.90
8269;DHT22;4174;48.304;16.364;2023-04-25T19:31:14;10.80;99.90
8269;DHT22;4174;48.304;16.364;2023-04-25T19:37:17;10.70;99.90
8269;DHT22;4174;48.304;16.364;2023-04-25T19:43:21;10.80;99.90
8269;DHT22;4174;48.304;16.364;2023-04-25T19:49:24;11.00;99.90
8269;DHT22;4174;48.304;16.364;2023-04-25T19:55:28;11.10;99.90
8269;DHT22;4174;48.304;16.364;2023-04-25T20:01:31;11.00;99.90
8269;DHT22;4174;48.304;16.364;2023-04-25T20:07:35;11.10;99.90
8269;DHT22;4174;48.304;16.364;2023-04-25T20:13:39;11.20;99.90
8269;DHT22;4174;48.304;16.364;2023-04-25T20:19:43;11.20;99.90
8269;DHT22;4174;48.304;16.364;2023-04-25T20:25:46;11.10;99.90
8269;DHT22;4174;48.304;16.364;2023-04-25T20:31:49;11.20;99.90
8269;DHT22;4174;48.304;16.364;2023-04-25T20:37:53;11.30;99.90
8269;DHT22;4174;48.304;16.364;2023-04-25T20:43:56;11.10;99.90
8269;DHT22;4174;48.304;16.364;2023-04-25T20:49:59;10.90;99.90
8269;DHT22;4174;48.304;16.364;2023-04-25T20:56:02;11.00;99.90
8269;DHT22;4174;48.304;16.364;2023-04-25T21:02:05;10.90;99.90
8269;DHT22;4174;48.304;16.364;2023-04-25T21:08:08;10.90;99.90
8269;DHT22;4174;48.304;16.364;2023-04-25T21:14:12;10.90;99.90
8269;DHT22;4174;48.304;16.364;2023-04-25T21:20:16;10.90;99.90
8269;DHT22;4174;48.304;16.364;2023-04-25T21:26:19;10.50;99.90
8269;DHT22;4174;48.304;16.364;2023-04-25T21:32:22;10.40;99.90
8269;DHT22;4174;48.304;16.364;2023-04-25T21:38:26;10.30;99.90
8269;DHT22;4174;48.304;16.364;2023-04-25T21:44:29;10.30;99.90
8269;DHT22;4174;48.304;16.364;2023-04-25T21:50:32;10.30;99.90
8269;DHT22;4174;48.304;16.364;2023-04-25T21:56:35;10.20;99.90
8269;DHT22;4174;48.304;16.364;2023-04-25T22:02:39;10.30;99.90
8269;DHT22;4174;48.304;16.364;2023-04-25T22:08:43;10.10;99.90
8269;DHT22;4174;48.304;16.364;2023-04-25T22:14:47;10.20;99.90
8269;DHT22;4174;48.304;16.364;2023-04-25T22:20:50;10.00;99.90
8269;DHT22;4174;48.304;16.364;2023-04-25T22:26:53;9.80;99.90
8269;DHT22;4174;48.304;16.364;2023-04-25T22:32:56;9.80;99.90
8269;DHT22;4174;48.304;16.364;2023-04-25T22:39:00;10.00;99.90
8269;DHT22;4174;48.304;16.364;2023-04-25T22:45:06;10.20;99.90
8269;DHT22;4174;48.304;16.364;2023-04-25T22:51:10;10.30;99.90
8269;DHT22;4174;48.304;16.364;2023-04-25T22:57:13;10.40;99.90
8269;DHT22;4174;48.304;16.364;2023-04-25T23:03:16;10.40;99.90
8269;DHT22;4174;48.304;16.364;2023-04-25T23:09:20;10.20;99.90
8269;DHT22;4174;48.304;16.364;2023-04-25T23:15:24;10.40;99.90
8269;DHT22;4174;48.304;16.364;2023-04-25T23:21:27;10.70;99.90
8269;DHT22;4174;48.304;16.364;2023-04-25T23:27:30;10.70;99.90
8269;DHT22;4174;48.304;16.364;2023-04-25T23:33:34;10.50;99.90
8269;DHT22;4174;48.304;16.364;2023-04-25T23:39:37;10.40;99.90
8269;DHT22;4174;48.304;16.364;2023-04-25T23:45:41;10.20;99.90
8269;DHT22;4174;48.304;16.364;2023-04-25T23:51:44;9.90;99.90
8269;DHT22;4174;48.304;16.364;2023-04-25T23:57:48;9.90;99.90
